Holliday, Texas
Current Conditions -  °F | °C
As of 9:55 PM on Wednesday 17 Dec 2014 (Local Time) from KCWC Reporting Station
Overcast Overcast  
Wind Chill: 34°   Ceiling: 400
Heat Index: 41°   Visibility: 10mi
Dew Point: 41°   Wind: 12mph
Humidity: 99%   Direction: 140°SE
Pressure: 30.12"   Gusts: NA
Location:  33.82°N, 98.7°W
Report Text: KCWC 180355Z AUTO 14010KT 10SM OVC004 05/05 A3012 RMK AO2 T00490048
Loading
Personal Weather Stations






























Interactive Weather Map New forecast layout! Learn more

10-Day Weather Forecast

Advertisements
Track Severe Weather on mobile